createdAt,value
2019-01-16T00:02:17.781Z,12.20
2019-01-16T00:05:06.276Z,13.13
2019-01-16T00:07:53.242Z,13.30
2019-01-16T00:10:34.119Z,12.60
2019-01-16T00:13:12.133Z,13.57
2019-01-16T00:15:59.385Z,14.73
2019-01-16T00:18:57.134Z,14.10
2019-01-16T00:21:48.572Z,13.63
2019-01-16T00:24:46.024Z,13.73
2019-01-16T00:27:40.706Z,14.33
2019-01-16T00:30:35.204Z,14.47
2019-01-16T00:33:12.488Z,14.00
2019-01-16T00:36:01.593Z,15.27
2019-01-16T00:38:43.568Z,14.57
2019-01-16T00:41:22.406Z,14.10
2019-01-16T00:44:16.863Z,15.50
2019-01-16T00:47:01.486Z,15.50
2019-01-16T00:50:05.490Z,14.80
2019-01-16T00:52:51.487Z,14.80
2019-01-16T00:55:43.216Z,14.80
2019-01-16T00:58:34.884Z,14.90
2019-01-16T01:01:18.285Z,14.20
2019-01-16T01:04:05.268Z,15.43
2019-01-16T01:07:08.923Z,14.40
2019-01-16T01:10:06.348Z,14.73
2019-01-16T01:12:54.919Z,15.07
2019-01-16T01:15:43.458Z,14.77
2019-01-16T01:18:44.346Z,13.47
2019-01-16T01:21:32.966Z,13.37
2019-01-16T01:24:20.247Z,14.30
2019-01-16T01:27:11.722Z,14.47
2019-01-16T01:30:00.363Z,13.87
2019-01-16T01:32:49.020Z,13.97
2019-01-16T01:35:52.590Z,13.97
2019-01-16T01:38:41.176Z,14.13
2019-01-16T01:41:38.884Z,14.13
2019-01-16T01:44:23.662Z,12.87
2019-01-16T01:47:04.458Z,14.60
2019-01-16T01:50:05.616Z,13.10
2019-01-16T01:52:55.897Z,14.17
2019-01-16T01:55:59.900Z,13.83
2019-01-16T01:58:48.664Z,13.47
2019-01-16T02:01:36.326Z,12.90
2019-01-16T02:04:40.456Z,11.93
2019-01-16T02:07:29.131Z,12.57
2019-01-16T02:10:13.416Z,12.83
2019-01-16T02:13:08.208Z,12.83
2019-01-16T02:16:06.052Z,12.97
2019-01-16T02:18:57.622Z,12.07
2019-01-16T02:21:46.355Z,13.10
2019-01-16T02:24:37.980Z,12.30
2019-01-16T02:27:25.597Z,11.77
2019-01-16T02:30:23.144Z,11.80
2019-01-16T02:33:29.980Z,12.23
2019-01-16T02:36:13.587Z,12.07
2019-01-16T02:38:58.005Z,11.87
2019-01-16T02:41:56.861Z,11.50
2019-01-16T02:44:44.152Z,11.47
2019-01-16T02:47:35.621Z,12.40
2019-01-16T02:50:24.785Z,11.60
2019-01-16T02:53:13.481Z,10.37
2019-01-16T02:55:58.961Z,11.00
2019-01-16T02:58:40.105Z,10.80
2019-01-16T03:01:17.774Z,9.97
2019-01-16T03:04:12.489Z,11.03
2019-01-16T03:07:08.089Z,10.53
2019-01-16T03:09:55.701Z,9.60
2019-01-16T03:12:44.333Z,9.70
2019-01-16T03:15:35.816Z,9.90
2019-01-16T03:18:23.011Z,9.87
2019-01-16T03:21:20.368Z,9.17
2019-01-16T03:24:08.499Z,9.30
2019-01-16T03:27:03.073Z,9.10
2019-01-16T03:29:42.884Z,8.83
2019-01-16T03:32:31.164Z,9.47
2019-01-16T03:35:32.038Z,9.43
2019-01-16T03:38:13.195Z,9.20
2019-01-16T03:41:14.230Z,8.60
2019-01-16T03:44:00.136Z,8.50
2019-01-16T03:46:48.415Z,8.30
2019-01-16T03:49:32.276Z,9.40
2019-01-16T03:52:19.916Z,8.70
2019-01-16T03:55:17.861Z,8.40
2019-01-16T03:58:06.210Z,8.47
2019-01-16T04:00:54.538Z,7.80
2019-01-16T04:03:41.401Z,7.23
2019-01-16T04:06:32.851Z,8.30
2019-01-16T04:09:41.168Z,7.27
2019-01-16T04:12:34.755Z,8.23
2019-01-16T04:15:30.273Z,8.40
2019-01-16T04:18:21.559Z,9.17
2019-01-16T04:21:01.867Z,8.90
2019-01-16T04:23:59.842Z,9.00
2019-01-16T04:27:00.645Z,9.20
2019-01-16T04:29:48.747Z,10.20
2019-01-16T04:32:48.025Z,10.97
2019-01-16T04:35:40.529Z,10.23
2019-01-16T04:38:36.404Z,10.80
2019-01-16T04:41:24.924Z,10.60
2019-01-16T04:44:05.440Z,11.20
2019-01-16T04:46:56.833Z,12.03
2019-01-16T04:50:00.702Z,11.10
2019-01-16T04:52:48.093Z,10.00
2019-01-16T04:55:51.818Z,10.93
2019-01-16T04:58:39.263Z,9.93
2019-01-16T05:01:25.953Z,10.67
2019-01-16T05:04:13.190Z,11.07
2019-01-16T05:07:03.206Z,10.20
2019-01-16T05:09:43.598Z,11.90
2019-01-16T05:12:47.192Z,10.03
2019-01-16T05:15:42.556Z,9.43
2019-01-16T05:18:37.201Z,9.73
2019-01-16T05:21:24.567Z,9.77
2019-01-16T05:24:11.672Z,9.20
2019-01-16T05:26:58.922Z,9.77
2019-01-16T05:29:50.250Z,9.43
2019-01-16T05:32:49.487Z,9.40
2019-01-16T05:35:56.251Z,9.93
2019-01-16T05:38:35.992Z,8.87
2019-01-16T05:41:38.180Z,9.13
2019-01-16T05:44:23.856Z,9.33
2019-01-16T05:47:21.284Z,9.30
2019-01-16T05:50:09.838Z,9.43
2019-01-16T05:52:56.072Z,9.50
2019-01-16T05:55:59.983Z,9.50
2019-01-16T05:59:00.513Z,9.47
2019-01-16T06:01:49.149Z,10.40
2019-01-16T06:04:36.567Z,9.80
2019-01-16T06:07:31.395Z,9.57
2019-01-16T06:10:32.345Z,10.10
2019-01-16T06:13:20.889Z,9.60
2019-01-16T06:16:15.415Z,9.73
2019-01-16T06:18:58.075Z,10.20
2019-01-16T06:21:45.582Z,9.77
2019-01-16T06:24:37.069Z,9.17
2019-01-16T06:27:30.247Z,9.63
2019-01-16T06:30:15.968Z,9.80
2019-01-16T06:32:57.449Z,10.13
2019-01-16T06:35:46.418Z,10.07
2019-01-16T06:38:32.202Z,9.80
2019-01-16T06:41:26.874Z,10.03
2019-01-16T06:44:14.143Z,10.10
2019-01-16T06:46:59.509Z,10.50
2019-01-16T06:50:01.497Z,10.50
2019-01-16T06:52:36.554Z,10.63
2019-01-16T06:55:25.552Z,10.40
2019-01-16T06:58:32.500Z,9.47
2019-01-16T07:01:30.018Z,10.00
2019-01-16T07:04:24.005Z,10.47
2019-01-16T07:07:01.525Z,9.90
2019-01-16T07:09:45.908Z,11.20
2019-01-16T07:12:46.953Z,10.40
2019-01-16T07:15:47.990Z,10.97
2019-01-16T07:18:48.882Z,11.10
2019-01-16T07:21:36.181Z,12.57
2019-01-16T07:24:30.552Z,11.37
2019-01-16T07:27:19.255Z,11.27
2019-01-16T07:30:09.913Z,10.90
2019-01-16T07:33:01.726Z,12.17
2019-01-16T07:35:49.169Z,12.33
2019-01-16T07:38:52.961Z,13.37
2019-01-16T07:41:40.008Z,16.40
2019-01-16T07:44:27.259Z,19.00
2019-01-16T07:47:09.392Z,20.03
2019-01-16T07:49:56.839Z,22.07
2019-01-16T07:52:43.532Z,23.67
2019-01-16T07:55:41.498Z,25.60
2019-01-16T07:58:48.909Z,27.10
2019-01-16T08:01:55.880Z,29.20
2019-01-16T08:04:56.799Z,30.03
2019-01-16T08:07:51.513Z,35.20
2019-01-16T08:10:42.937Z,34.80
2019-01-16T08:13:25.524Z,31.80
2019-01-16T08:16:12.831Z,27.77
2019-01-16T08:18:50.972Z,25.60
2019-01-16T08:21:50.791Z,26.03
2019-01-16T08:24:51.594Z,24.67
2019-01-16T08:27:39.208Z,24.40
2019-01-16T08:30:31.149Z,24.10
2019-01-16T08:33:31.744Z,22.73
2019-01-16T08:36:33.798Z,23.07
2019-01-16T08:39:21.137Z,21.83
2019-01-16T08:42:08.729Z,22.20
2019-01-16T08:44:58.078Z,21.37
2019-01-16T08:47:45.268Z,20.43
2019-01-16T08:50:32.693Z,20.23
2019-01-16T08:53:26.184Z,20.43
2019-01-16T08:56:26.896Z,19.53
2019-01-16T08:59:09.923Z,19.93
2019-01-16T09:02:04.441Z,19.50
2019-01-16T09:05:09.456Z,19.83
2019-01-16T09:08:01.312Z,19.23
2019-01-16T09:10:49.899Z,20.30
2019-01-16T09:13:31.812Z,18.63
2019-01-16T09:16:20.481Z,19.20
2019-01-16T09:19:05.629Z,19.97
2019-01-16T09:22:09.656Z,20.00
2019-01-16T09:24:56.822Z,19.43
2019-01-16T09:27:45.474Z,17.87
2019-01-16T09:30:40.397Z,18.47
2019-01-16T09:33:24.665Z,18.13
2019-01-16T09:36:09.060Z,19.07
2019-01-16T09:38:56.808Z,17.97
2019-01-16T09:42:03.592Z,19.17
2019-01-16T09:45:07.056Z,19.57
2019-01-16T09:48:01.692Z,19.07
2019-01-16T09:50:49.828Z,18.33
2019-01-16T09:53:39.076Z,18.17
2019-01-16T09:56:30.462Z,18.10
2019-01-16T09:59:18.925Z,18.50
2019-01-16T10:02:07.579Z,19.37
2019-01-16T10:05:05.375Z,21.77
2019-01-16T10:08:00.005Z,21.70
2019-01-16T10:10:51.626Z,21.53
2019-01-16T10:13:40.566Z,20.17
2019-01-16T10:16:19.132Z,22.27
2019-01-16T10:19:14.693Z,21.17
2019-01-16T10:21:57.066Z,20.17
2019-01-16T10:24:44.606Z,21.13
2019-01-16T10:27:33.201Z,21.43
2019-01-16T10:30:19.815Z,23.10
2019-01-16T10:33:04.849Z,21.50
2019-01-16T10:35:45.779Z,24.53
2019-01-16T10:38:33.438Z,24.67
2019-01-16T10:41:21.043Z,24.53
2019-01-16T10:44:08.269Z,24.70
2019-01-16T10:47:05.943Z,22.53
2019-01-16T10:49:53.118Z,23.47
2019-01-16T10:52:53.909Z,24.30
2019-01-16T10:55:46.752Z,24.00
2019-01-16T10:58:28.382Z,23.40
2019-01-16T11:01:17.222Z,21.83
2019-01-16T11:04:05.747Z,24.20
2019-01-16T11:07:09.379Z,25.10
2019-01-16T11:09:56.967Z,23.97
2019-01-16T11:12:44.682Z,22.07
2019-01-16T11:15:25.042Z,23.70
2019-01-16T11:18:13.814Z,23.90
2019-01-16T11:21:01.402Z,23.30
2019-01-16T11:23:48.956Z,23.67
2019-01-16T11:26:52.813Z,22.90
2019-01-16T11:29:41.424Z,22.67
2019-01-16T11:32:28.690Z,22.47
2019-01-16T11:35:16.028Z,23.27
2019-01-16T11:38:22.643Z,23.60
2019-01-16T11:41:09.655Z,24.10
2019-01-16T11:43:53.244Z,23.10
2019-01-16T11:46:38.427Z,23.27
2019-01-16T11:49:25.834Z,23.20
2019-01-16T11:52:08.678Z,22.87
2019-01-16T11:54:57.312Z,23.27
2019-01-16T11:57:33.316Z,23.40
2019-01-16T12:00:21.933Z,23.40
2019-01-16T12:03:10.603Z,22.70
2019-01-16T12:05:50.397Z,22.93
2019-01-16T12:08:39.022Z,20.97
2019-01-16T12:11:18.920Z,20.83
2019-01-16T12:14:12.179Z,21.60
2019-01-16T12:16:55.407Z,21.50
2019-01-16T12:19:43.083Z,20.97
2019-01-16T12:22:28.410Z,21.80
2019-01-16T12:25:08.127Z,20.47
2019-01-16T12:27:57.459Z,19.93
2019-01-16T12:30:46.126Z,19.80
2019-01-16T12:33:49.848Z,21.10
2019-01-16T12:36:36.775Z,20.83
2019-01-16T12:39:30.952Z,21.00
2019-01-16T12:42:22.481Z,21.50
2019-01-16T12:45:10.113Z,20.90
2019-01-16T12:48:18.559Z,20.67
2019-01-16T12:51:15.954Z,21.30
2019-01-16T12:54:03.817Z,20.27
2019-01-16T12:56:57.493Z,20.53
2019-01-16T12:59:38.377Z,20.70
2019-01-16T13:02:21.291Z,19.97
2019-01-16T13:05:24.825Z,19.97
2019-01-16T13:08:19.240Z,20.30
2019-01-16T13:11:10.632Z,20.77
2019-01-16T13:13:58.668Z,19.67
2019-01-16T13:16:47.394Z,20.30
2019-01-16T13:19:38.884Z,20.43
2019-01-16T13:22:22.034Z,20.40
2019-01-16T13:25:09.201Z,21.10
2019-01-16T13:28:03.866Z,20.33
2019-01-16T13:30:51.495Z,19.57
2019-01-16T13:33:58.623Z,20.07
2019-01-16T13:36:50.147Z,19.90
2019-01-16T13:39:37.278Z,19.47
2019-01-16T13:42:28.806Z,18.93
2019-01-16T13:45:16.275Z,19.20
2019-01-16T13:47:57.931Z,17.77
2019-01-16T13:50:35.874Z,19.20
2019-01-16T13:53:30.432Z,19.73
2019-01-16T13:56:20.131Z,18.60
2019-01-16T13:59:07.670Z,19.10
2019-01-16T14:01:50.402Z,17.90
2019-01-16T14:04:37.769Z,18.23
2019-01-16T14:07:21.308Z,18.00
2019-01-16T14:10:08.181Z,18.23
2019-01-16T14:13:09.289Z,17.23
2019-01-16T14:15:56.807Z,18.80
2019-01-16T14:18:43.946Z,18.33
2019-01-16T14:21:37.162Z,17.70
2019-01-16T14:24:34.775Z,17.73
2019-01-16T14:27:22.162Z,17.73
2019-01-16T14:30:16.925Z,17.40
2019-01-16T14:33:04.144Z,18.00
2019-01-16T14:35:46.814Z,17.37
2019-01-16T14:38:35.458Z,17.40
2019-01-16T14:41:42.172Z,18.83
2019-01-16T14:44:30.845Z,18.10
2019-01-16T14:47:17.922Z,17.57
2019-01-16T14:50:05.209Z,16.47
2019-01-16T14:53:02.909Z,16.93
2019-01-16T14:55:54.456Z,17.73
2019-01-16T14:58:37.998Z,16.90
2019-01-16T15:01:29.514Z,16.57
2019-01-16T15:04:25.333Z,17.27
2019-01-16T15:07:16.924Z,16.10
2019-01-16T15:10:00.213Z,16.87
2019-01-16T15:12:54.957Z,16.80
2019-01-16T15:15:42.274Z,17.13
2019-01-16T15:18:29.333Z,16.10
2019-01-16T15:21:24.207Z,15.43
2019-01-16T15:24:05.909Z,16.37
2019-01-16T15:26:57.390Z,15.27
2019-01-16T15:29:36.895Z,15.43
2019-01-16T15:32:24.274Z,14.13
2019-01-16T15:35:24.768Z,14.80
2019-01-16T15:38:19.357Z,13.43
2019-01-16T15:41:09.072Z,15.23
2019-01-16T15:43:50.798Z,14.20
2019-01-16T15:46:39.390Z,14.60
2019-01-16T15:49:24.942Z,14.40
2019-01-16T15:52:13.385Z,13.90
2019-01-16T15:55:08.169Z,14.57
2019-01-16T15:57:51.518Z,14.30
2019-01-16T16:00:55.235Z,13.23
2019-01-16T16:03:53.012Z,12.70
2019-01-16T16:06:41.465Z,13.03
2019-01-16T16:09:32.892Z,12.53
2019-01-16T16:12:11.623Z,12.77
2019-01-16T16:14:54.638Z,13.33
2019-01-16T16:17:50.140Z,15.40
2019-01-16T16:20:51.164Z,15.90
2019-01-16T16:23:33.428Z,16.03
2019-01-16T16:26:21.092Z,15.23
2019-01-16T16:29:21.913Z,16.90
2019-01-16T16:32:09.294Z,17.70
2019-01-16T16:35:07.039Z,16.93
2019-01-16T16:38:10.986Z,15.90
2019-01-16T16:40:56.803Z,16.13
2019-01-16T16:43:44.591Z,15.40
2019-01-16T16:46:32.069Z,16.97
2019-01-16T16:49:23.922Z,16.80
2019-01-16T16:52:11.284Z,14.87
2019-01-16T16:55:08.216Z,15.97
2019-01-16T16:57:48.662Z,15.10
2019-01-16T17:00:49.442Z,15.03
2019-01-16T17:03:56.598Z,14.23
2019-01-16T17:06:51.210Z,13.90
2019-01-16T17:09:38.329Z,14.10
2019-01-16T17:12:31.049Z,14.03
2019-01-16T17:15:28.630Z,13.43
2019-01-16T17:18:23.412Z,12.83
2019-01-16T17:21:18.220Z,13.97
2019-01-16T17:24:22.161Z,16.00
2019-01-16T17:27:26.120Z,16.33
2019-01-16T17:30:28.755Z,18.13
2019-01-16T17:33:05.811Z,18.50
2019-01-16T17:35:53.134Z,18.77
2019-01-16T17:38:41.872Z,21.13
2019-01-16T17:41:33.138Z,21.30
2019-01-16T17:44:33.236Z,20.17
2019-01-16T17:47:20.682Z,19.37
2019-01-16T17:50:08.088Z,18.73
2019-01-16T17:52:55.725Z,20.10
2019-01-16T17:55:45.662Z,19.33
2019-01-16T17:58:37.256Z,19.17
2019-01-16T18:01:24.557Z,19.27
2019-01-16T18:04:13.317Z,19.07
2019-01-16T18:07:00.729Z,18.30
2019-01-16T18:09:47.976Z,17.43
2019-01-16T18:12:35.427Z,18.30
2019-01-16T18:15:39.700Z,17.83
2019-01-16T18:18:39.692Z,16.93
2019-01-16T18:21:37.025Z,17.13
2019-01-16T18:24:31.788Z,16.27
2019-01-16T18:27:33.326Z,17.77
2019-01-16T18:30:20.796Z,26.57
2019-01-16T18:33:12.052Z,24.53
2019-01-16T18:35:50.490Z,22.27
2019-01-16T18:38:41.869Z,23.00
2019-01-16T18:41:31.557Z,22.90
2019-01-16T18:44:25.862Z,22.10
2019-01-16T18:47:26.997Z,23.30
2019-01-16T18:50:18.221Z,21.57
2019-01-16T18:53:13.042Z,22.00
2019-01-16T18:56:00.460Z,21.60
2019-01-16T18:58:55.080Z,20.77
2019-01-16T19:01:39.544Z,21.83
2019-01-16T19:04:26.721Z,22.20
2019-01-16T19:07:13.852Z,21.90
2019-01-16T19:10:01.273Z,23.20
2019-01-16T19:12:49.617Z,22.63
2019-01-16T19:15:33.758Z,22.10
2019-01-16T19:18:31.415Z,23.10
2019-01-16T19:21:30.438Z,23.63
2019-01-16T19:24:21.938Z,22.60
2019-01-16T19:27:13.669Z,23.57
2019-01-16T19:29:55.249Z,23.63
2019-01-16T19:32:37.481Z,22.83
2019-01-16T19:35:26.338Z,23.40
2019-01-16T19:38:15.131Z,24.13
2019-01-16T19:41:06.491Z,27.00
2019-01-16T19:43:58.247Z,26.43
2019-01-16T19:46:45.174Z,27.33
2019-01-16T19:49:40.190Z,29.37
2019-01-16T19:52:24.841Z,30.00
2019-01-16T19:55:13.561Z,29.10
2019-01-16T19:58:05.388Z,30.43
2019-01-16T20:00:56.491Z,30.50
2019-01-16T20:03:45.865Z,30.00
2019-01-16T20:06:34.343Z,31.30
2019-01-16T20:09:21.103Z,28.90
2019-01-16T20:12:09.632Z,31.37
2019-01-16T20:15:01.108Z,39.43
2019-01-16T20:17:58.912Z,68.77
2019-01-16T20:20:46.501Z,34.87
2019-01-16T20:23:38.009Z,35.43
2019-01-16T20:26:32.642Z,36.77
2019-01-16T20:29:25.012Z,38.60
2019-01-16T20:32:08.571Z,40.57
2019-01-16T20:34:55.668Z,41.30
2019-01-16T20:37:56.283Z,42.20
2019-01-16T20:40:43.161Z,47.10
2019-01-16T20:43:25.651Z,48.10
2019-01-16T20:46:14.199Z,49.77
2019-01-16T20:48:56.984Z,50.40
2019-01-16T20:51:45.682Z,50.17
2019-01-16T20:54:52.636Z,53.47
2019-01-16T20:57:53.033Z,54.27
2019-01-16T21:00:36.432Z,54.50
2019-01-16T21:03:37.268Z,52.90
2019-01-16T21:06:31.113Z,52.20
2019-01-16T21:09:38.157Z,51.87
2019-01-16T21:12:25.518Z,51.60
2019-01-16T21:15:14.246Z,53.40
2019-01-16T21:18:18.014Z,51.87
2019-01-16T21:21:09.337Z,49.03
2019-01-16T21:24:13.157Z,49.77
2019-01-16T21:26:58.846Z,44.93
2019-01-16T21:29:46.008Z,48.50
2019-01-16T21:32:49.845Z,46.07
2019-01-16T21:35:38.191Z,46.20
2019-01-16T21:38:51.380Z,46.60
2019-01-16T21:41:23.037Z,43.80
2019-01-16T21:44:09.398Z,45.77
2019-01-16T21:47:07.072Z,42.50
2019-01-16T21:50:03.829Z,43.50
2019-01-16T21:52:58.481Z,41.67
2019-01-16T21:55:46.921Z,43.10
2019-01-16T21:58:34.221Z,41.60
2019-01-16T22:01:17.963Z,40.80
2019-01-16T22:04:15.466Z,38.30
2019-01-16T22:07:06.866Z,39.90
2019-01-16T22:09:55.664Z,40.27
2019-01-16T22:12:43.240Z,39.53
2019-01-16T22:15:33.253Z,40.67
2019-01-16T22:18:20.747Z,41.60
2019-01-16T22:21:15.849Z,39.73
2019-01-16T22:24:07.145Z,39.67
2019-01-16T22:26:51.124Z,39.37
2019-01-16T22:29:31.590Z,40.20
2019-01-16T22:32:23.416Z,38.73
2019-01-16T22:35:11.066Z,37.90
2019-01-16T22:38:02.496Z,38.17
2019-01-16T22:40:51.201Z,36.67
2019-01-16T22:43:38.560Z,37.37
2019-01-16T22:46:36.325Z,34.57
2019-01-16T22:49:39.992Z,36.57
2019-01-16T22:52:35.275Z,35.70
2019-01-16T22:55:36.281Z,34.30
2019-01-16T22:58:15.044Z,35.07
2019-01-16T23:01:04.144Z,34.97
2019-01-16T23:03:52.784Z,34.10
2019-01-16T23:06:41.536Z,32.90
2019-01-16T23:09:33.052Z,33.10
2019-01-16T23:12:27.573Z,33.60
2019-01-16T23:15:16.272Z,31.40
2019-01-16T23:17:59.348Z,31.13
2019-01-16T23:20:46.939Z,31.37
2019-01-16T23:23:38.562Z,31.30
2019-01-16T23:26:27.234Z,31.73
2019-01-16T23:29:10.735Z,28.13
2019-01-16T23:31:56.112Z,29.50
2019-01-16T23:35:02.895Z,30.00
2019-01-16T23:37:52.357Z,28.40
2019-01-16T23:40:39.453Z,28.83
2019-01-16T23:43:26.943Z,27.77
2019-01-16T23:46:30.979Z,27.53
2019-01-16T23:49:22.298Z,27.13
2019-01-16T23:51:58.767Z,28.37
2019-01-16T23:54:50.471Z,27.07
2019-01-16T23:57:37.733Z,26.37
